sensor_id;sensor_type;location;lat;lon;timestamp;pressure;altitude;pressure_sealevel;temperature;humidity
74790;BME280;63318;52.406;13.416;2022-11-20T00:01:10;100815.41;;;-0.06;82.91
74790;BME280;63318;52.406;13.416;2022-11-20T00:03:39;100813.29;;;-0.08;82.81
74790;BME280;63318;52.406;13.416;2022-11-20T00:06:09;100815.30;;;-0.06;82.82
74790;BME280;63318;52.406;13.416;2022-11-20T00:08:38;100811.91;;;0.07;82.57
74790;BME280;63318;52.406;13.416;2022-11-20T00:11:08;100810.29;;;0.12;82.38
74790;BME280;63318;52.406;13.416;2022-11-20T00:13:36;100810.13;;;0.12;82.58
74790;BME280;63318;52.406;13.416;2022-11-20T00:16:07;100808.19;;;0.14;82.44
74790;BME280;63318;52.406;13.416;2022-11-20T00:18:36;100802.83;;;0.18;82.81
74790;BME280;63318;52.406;13.416;2022-11-20T00:21:05;100803.25;;;0.20;82.61
74790;BME280;63318;52.406;13.416;2022-11-20T00:23:34;100806.44;;;0.25;83.05
74790;BME280;63318;52.406;13.416;2022-11-20T00:26:04;100807.77;;;0.25;83.05
74790;BME280;63318;52.406;13.416;2022-11-20T00:28:33;100810.55;;;0.27;83.05
74790;BME280;63318;52.406;13.416;2022-11-20T00:31:06;100808.23;;;0.31;83.46
74790;BME280;63318;52.406;13.416;2022-11-20T00:33:35;100807.10;;;0.31;82.87
74790;BME280;63318;52.406;13.416;2022-11-20T00:36:05;100806.27;;;0.32;82.74
74790;BME280;63318;52.406;13.416;2022-11-20T00:38:34;100802.06;;;0.31;82.75
74790;BME280;63318;52.406;13.416;2022-11-20T00:41:05;100808.91;;;0.28;82.86
74790;BME280;63318;52.406;13.416;2022-11-20T00:43:34;100808.78;;;0.27;82.39
74790;BME280;63318;52.406;13.416;2022-11-20T00:46:06;100812.21;;;0.26;82.54
74790;BME280;63318;52.406;13.416;2022-11-20T00:48:34;100814.11;;;0.24;82.55
74790;BME280;63318;52.406;13.416;2022-11-20T00:51:03;100812.12;;;0.21;82.35
74790;BME280;63318;52.406;13.416;2022-11-20T00:53:31;100808.71;;;0.18;82.50
74790;BME280;63318;52.406;13.416;2022-11-20T00:56:01;100809.75;;;0.13;82.11
74790;BME280;63318;52.406;13.416;2022-11-20T00:58:32;100812.05;;;0.08;82.35
74790;BME280;63318;52.406;13.416;2022-11-20T01:01:06;100813.95;;;0.05;82.51
74790;BME280;63318;52.406;13.416;2022-11-20T01:03:35;100811.17;;;0.01;82.75
74790;BME280;63318;52.406;13.416;2022-11-20T01:06:06;100811.11;;;-0.04;82.19
74790;BME280;63318;52.406;13.416;2022-11-20T01:08:36;100809.87;;;-0.10;82.32
74790;BME280;63318;52.406;13.416;2022-11-20T01:11:07;100814.97;;;-0.13;82.39
74790;BME280;63318;52.406;13.416;2022-11-20T01:13:36;100812.95;;;-0.15;82.73
74790;BME280;63318;52.406;13.416;2022-11-20T01:16:07;100811.52;;;-0.18;82.29
74790;BME280;63318;52.406;13.416;2022-11-20T01:18:37;100807.98;;;-0.20;82.33
74790;BME280;63318;52.406;13.416;2022-11-20T01:21:08;100804.29;;;-0.17;82.41
74790;BME280;63318;52.406;13.416;2022-11-20T01:23:38;100803.68;;;-0.04;81.77
74790;BME280;63318;52.406;13.416;2022-11-20T01:26:09;100803.68;;;-0.02;82.12
74790;BME280;63318;52.406;13.416;2022-11-20T01:28:38;100801.50;;;-0.02;82.08
74790;BME280;63318;52.406;13.416;2022-11-20T01:31:14;100798.95;;;-0.00;82.06
74790;BME280;63318;52.406;13.416;2022-11-20T01:33:43;100799.14;;;-0.02;82.06
74790;BME280;63318;52.406;13.416;2022-11-20T01:36:12;100799.65;;;-0.03;82.62
74790;BME280;63318;52.406;13.416;2022-11-20T01:38:41;100800.41;;;-0.01;82.65
74790;BME280;63318;52.406;13.416;2022-11-20T01:41:10;100798.59;;;0.04;82.85
74790;BME280;63318;52.406;13.416;2022-11-20T01:43:38;100797.80;;;-0.01;82.71
74790;BME280;63318;52.406;13.416;2022-11-20T01:46:17;100799.52;;;-0.04;82.82
74790;BME280;63318;52.406;13.416;2022-11-20T01:48:51;100799.27;;;-0.03;82.76
74790;BME280;63318;52.406;13.416;2022-11-20T01:51:25;100798.81;;;-0.03;82.54
74790;BME280;63318;52.406;13.416;2022-11-20T01:53:59;100797.58;;;-0.06;82.41
74790;BME280;63318;52.406;13.416;2022-11-20T01:56:30;100793.92;;;-0.14;82.47
74790;BME280;63318;52.406;13.416;2022-11-20T01:59:01;100794.83;;;-0.21;82.49
74790;BME280;63318;52.406;13.416;2022-11-20T02:01:31;100794.63;;;-0.28;82.27
74790;BME280;63318;52.406;13.416;2022-11-20T02:04:00;100792.67;;;-0.32;82.41
74790;BME280;63318;52.406;13.416;2022-11-20T02:06:31;100793.71;;;-0.36;82.23
74790;BME280;63318;52.406;13.416;2022-11-20T02:09:03;100791.45;;;-0.40;82.10
74790;BME280;63318;52.406;13.416;2022-11-20T02:11:32;100787.65;;;-0.45;82.45
74790;BME280;63318;52.406;13.416;2022-11-20T02:14:00;100786.88;;;-0.47;82.81
74790;BME280;63318;52.406;13.416;2022-11-20T02:16:33;100781.88;;;-0.49;82.39
74790;BME280;63318;52.406;13.416;2022-11-20T02:19:06;100775.99;;;-0.51;82.39
74790;BME280;63318;52.406;13.416;2022-11-20T02:21:39;100775.44;;;-0.51;82.45
74790;BME280;63318;52.406;13.416;2022-11-20T02:24:11;100775.05;;;-0.38;81.92
74790;BME280;63318;52.406;13.416;2022-11-20T02:26:48;100774.02;;;-0.36;81.88
74790;BME280;63318;52.406;13.416;2022-11-20T02:29:22;100770.85;;;-0.40;81.74
74790;BME280;63318;52.406;13.416;2022-11-20T02:31:52;100768.17;;;-0.38;82.54
74790;BME280;63318;52.406;13.416;2022-11-20T02:34:22;100769.02;;;-0.33;82.15
74790;BME280;63318;52.406;13.416;2022-11-20T02:36:52;100772.17;;;-0.26;82.44
74790;BME280;63318;52.406;13.416;2022-11-20T02:39:21;100773.05;;;-0.16;82.46
74790;BME280;63318;52.406;13.416;2022-11-20T02:41:53;100773.23;;;-0.11;82.24
74790;BME280;63318;52.406;13.416;2022-11-20T02:44:22;100766.52;;;-0.12;82.43
74790;BME280;63318;52.406;13.416;2022-11-20T02:46:50;100763.54;;;-0.13;82.74
74790;BME280;63318;52.406;13.416;2022-11-20T02:49:18;100762.50;;;-0.11;82.72
74790;BME280;63318;52.406;13.416;2022-11-20T02:51:46;100763.00;;;-0.10;82.44
74790;BME280;63318;52.406;13.416;2022-11-20T02:54:14;100760.42;;;-0.14;82.63
74790;BME280;63318;52.406;13.416;2022-11-20T02:56:42;100755.90;;;-0.20;82.28
74790;BME280;63318;52.406;13.416;2022-11-20T02:59:11;100753.70;;;-0.24;82.65
74790;BME280;63318;52.406;13.416;2022-11-20T03:01:39;100751.72;;;-0.28;82.01
74790;BME280;63318;52.406;13.416;2022-11-20T03:04:07;100751.11;;;-0.33;82.22
74790;BME280;63318;52.406;13.416;2022-11-20T03:06:35;100750.46;;;-0.37;82.29
74790;BME280;63318;52.406;13.416;2022-11-20T03:09:04;100752.33;;;-0.42;82.03
74790;BME280;63318;52.406;13.416;2022-11-20T03:11:32;100750.45;;;-0.48;82.22
74790;BME280;63318;52.406;13.416;2022-11-20T03:14:03;100749.91;;;-0.55;82.02
74790;BME280;63318;52.406;13.416;2022-11-20T03:16:32;100747.12;;;-0.60;82.21
74790;BME280;63318;52.406;13.416;2022-11-20T03:19:01;100748.73;;;-0.64;82.40
74790;BME280;63318;52.406;13.416;2022-11-20T03:21:29;100745.70;;;-0.68;82.57
74790;BME280;63318;52.406;13.416;2022-11-20T03:23:57;100740.71;;;-0.72;82.21
74790;BME280;63318;52.406;13.416;2022-11-20T03:26:26;100741.74;;;-0.74;82.71
74790;BME280;63318;52.406;13.416;2022-11-20T03:28:56;100737.00;;;-0.76;82.15
74790;BME280;63318;52.406;13.416;2022-11-20T03:31:27;100732.81;;;-0.66;82.51
74790;BME280;63318;52.406;13.416;2022-11-20T03:33:57;100734.36;;;-0.58;82.05
74790;BME280;63318;52.406;13.416;2022-11-20T03:36:26;100736.31;;;-0.56;81.91
74790;BME280;63318;52.406;13.416;2022-11-20T03:38:55;100738.21;;;-0.54;81.98
74790;BME280;63318;52.406;13.416;2022-11-20T03:41:25;100744.30;;;-0.47;82.13
74790;BME280;63318;52.406;13.416;2022-11-20T03:43:55;100740.09;;;-0.39;82.02
74790;BME280;63318;52.406;13.416;2022-11-20T03:46:24;100739.19;;;-0.32;82.29
74790;BME280;63318;52.406;13.416;2022-11-20T03:48:52;100742.98;;;-0.30;82.23
74790;BME280;63318;52.406;13.416;2022-11-20T03:51:23;100739.63;;;-0.29;82.28
74790;BME280;63318;52.406;13.416;2022-11-20T03:53:53;100744.20;;;-0.26;82.37
74790;BME280;63318;52.406;13.416;2022-11-20T03:56:25;100740.90;;;-0.23;82.48
74790;BME280;63318;52.406;13.416;2022-11-20T03:58:53;100736.95;;;-0.22;82.17
74790;BME280;63318;52.406;13.416;2022-11-20T04:01:24;100736.84;;;-0.23;82.17
74790;BME280;63318;52.406;13.416;2022-11-20T04:03:53;100735.86;;;-0.24;82.26
74790;BME280;63318;52.406;13.416;2022-11-20T04:06:23;100731.53;;;-0.24;82.01
74790;BME280;63318;52.406;13.416;2022-11-20T04:08:53;100730.95;;;-0.25;82.19
74790;BME280;63318;52.406;13.416;2022-11-20T04:11:23;100732.16;;;-0.27;81.95
74790;BME280;63318;52.406;13.416;2022-11-20T04:13:53;100729.88;;;-0.30;81.88
74790;BME280;63318;52.406;13.416;2022-11-20T04:16:22;100731.23;;;-0.35;81.81
74790;BME280;63318;52.406;13.416;2022-11-20T04:18:54;100730.64;;;-0.39;82.10
74790;BME280;63318;52.406;13.416;2022-11-20T04:21:23;100733.52;;;-0.44;81.65
74790;BME280;63318;52.406;13.416;2022-11-20T04:23:52;100731.40;;;-0.47;81.90
74790;BME280;63318;52.406;13.416;2022-11-20T04:26:21;100731.69;;;-0.50;81.92
74790;BME280;63318;52.406;13.416;2022-11-20T04:28:50;100733.80;;;-0.53;81.59
74790;BME280;63318;52.406;13.416;2022-11-20T04:31:22;100734.94;;;-0.54;82.16
74790;BME280;63318;52.406;13.416;2022-11-20T04:33:51;100733.11;;;-0.57;82.65
74790;BME280;63318;52.406;13.416;2022-11-20T04:36:21;100734.95;;;-0.60;82.16
74790;BME280;63318;52.406;13.416;2022-11-20T04:38:54;100733.84;;;-0.64;82.22
74790;BME280;63318;52.406;13.416;2022-11-20T04:41:23;100730.34;;;-0.66;81.99
74790;BME280;63318;52.406;13.416;2022-11-20T04:43:53;100729.66;;;-0.68;82.22
74790;BME280;63318;52.406;13.416;2022-11-20T04:46:22;100730.42;;;-0.67;82.02
74790;BME280;63318;52.406;13.416;2022-11-20T04:48:50;100727.08;;;-0.55;81.79
74790;BME280;63318;52.406;13.416;2022-11-20T04:51:18;100724.30;;;-0.50;81.79
74790;BME280;63318;52.406;13.416;2022-11-20T04:53:47;100720.95;;;-0.45;81.86
74790;BME280;63318;52.406;13.416;2022-11-20T04:56:15;100721.06;;;-0.39;81.92
74790;BME280;63318;52.406;13.416;2022-11-20T04:58:43;100718.13;;;-0.28;82.29
74790;BME280;63318;52.406;13.416;2022-11-20T05:01:13;100717.27;;;-0.19;82.16
74790;BME280;63318;52.406;13.416;2022-11-20T05:03:43;100711.60;;;-0.08;82.13
74790;BME280;63318;52.406;13.416;2022-11-20T05:06:13;100706.35;;;-0.02;82.45
74790;BME280;63318;52.406;13.416;2022-11-20T05:08:42;100709.73;;;0.03;82.47
74790;BME280;63318;52.406;13.416;2022-11-20T05:11:12;100702.98;;;0.08;82.61
74790;BME280;63318;52.406;13.416;2022-11-20T05:13:41;100701.65;;;0.11;82.56
74790;BME280;63318;52.406;13.416;2022-11-20T05:16:11;100696.11;;;0.12;82.55
74790;BME280;63318;52.406;13.416;2022-11-20T05:18:40;100694.33;;;0.12;82.17
74790;BME280;63318;52.406;13.416;2022-11-20T05:21:09;100691.19;;;0.11;82.07
74790;BME280;63318;52.406;13.416;2022-11-20T05:23:38;100687.86;;;0.08;81.74
74790;BME280;63318;52.406;13.416;2022-11-20T05:26:11;100685.89;;;0.08;81.97
74790;BME280;63318;52.406;13.416;2022-11-20T05:28:39;100685.96;;;0.06;81.62
74790;BME280;63318;52.406;13.416;2022-11-20T05:31:09;100690.08;;;0.01;81.73
74790;BME280;63318;52.406;13.416;2022-11-20T05:33:39;100692.99;;;-0.06;82.00
74790;BME280;63318;52.406;13.416;2022-11-20T05:36:08;100696.73;;;-0.12;81.47
74790;BME280;63318;52.406;13.416;2022-11-20T05:38:37;100699.44;;;-0.17;81.37
74790;BME280;63318;52.406;13.416;2022-11-20T05:41:06;100699.46;;;-0.23;81.68
74790;BME280;63318;52.406;13.416;2022-11-20T05:43:36;100698.94;;;-0.29;81.80
74790;BME280;63318;52.406;13.416;2022-11-20T05:46:06;100698.46;;;-0.23;81.33
74790;BME280;63318;52.406;13.416;2022-11-20T05:48:35;100695.40;;;-0.20;81.46
74790;BME280;63318;52.406;13.416;2022-11-20T05:51:06;100694.60;;;-0.22;81.33
74790;BME280;63318;52.406;13.416;2022-11-20T05:53:35;100687.55;;;-0.21;81.97
74790;BME280;63318;52.406;13.416;2022-11-20T05:56:05;100687.13;;;-0.20;81.82
74790;BME280;63318;52.406;13.416;2022-11-20T05:58:34;100687.02;;;-0.16;81.66
74790;BME280;63318;52.406;13.416;2022-11-20T06:01:08;100680.52;;;-0.13;81.90
74790;BME280;63318;52.406;13.416;2022-11-20T06:03:37;100681.40;;;-0.08;81.89
74790;BME280;63318;52.406;13.416;2022-11-20T06:06:06;100679.42;;;-0.07;81.92
74790;BME280;63318;52.406;13.416;2022-11-20T06:08:35;100680.70;;;-0.07;82.44
74790;BME280;63318;52.406;13.416;2022-11-20T06:11:06;100680.48;;;-0.07;82.17
74790;BME280;63318;52.406;13.416;2022-11-20T06:13:35;100683.26;;;-0.09;82.46
74790;BME280;63318;52.406;13.416;2022-11-20T06:16:04;100684.46;;;-0.08;82.21
74790;BME280;63318;52.406;13.416;2022-11-20T06:18:32;100679.39;;;-0.08;82.06
74790;BME280;63318;52.406;13.416;2022-11-20T06:21:06;100675.77;;;-0.09;82.12
74790;BME280;63318;52.406;13.416;2022-11-20T06:23:35;100676.39;;;-0.12;81.74
74790;BME280;63318;52.406;13.416;2022-11-20T06:26:05;100679.59;;;-0.14;82.26
74790;BME280;63318;52.406;13.416;2022-11-20T06:28:34;100679.75;;;-0.18;81.91
74790;BME280;63318;52.406;13.416;2022-11-20T06:31:03;100683.09;;;-0.22;81.90
74790;BME280;63318;52.406;13.416;2022-11-20T06:33:32;100686.15;;;-0.25;81.86
74790;BME280;63318;52.406;13.416;2022-11-20T06:36:01;100687.83;;;-0.28;82.19
74790;BME280;63318;52.406;13.416;2022-11-20T06:38:30;100687.85;;;-0.30;81.68
74790;BME280;63318;52.406;13.416;2022-11-20T06:40:58;100689.52;;;-0.23;81.50
74790;BME280;63318;52.406;13.416;2022-11-20T06:43:28;100684.04;;;-0.16;81.74
74790;BME280;63318;52.406;13.416;2022-11-20T06:45:57;100681.73;;;-0.13;81.45
74790;BME280;63318;52.406;13.416;2022-11-20T06:48:27;100679.23;;;-0.12;81.85
74790;BME280;63318;52.406;13.416;2022-11-20T06:50:56;100684.13;;;-0.10;81.84
74790;BME280;63318;52.406;13.416;2022-11-20T06:53:24;100680.40;;;-0.02;82.26
74790;BME280;63318;52.406;13.416;2022-11-20T06:55:55;100679.82;;;0.00;82.09
74790;BME280;63318;52.406;13.416;2022-11-20T06:58:23;100682.96;;;-0.01;82.21
74790;BME280;63318;52.406;13.416;2022-11-20T07:00:53;100675.71;;;-0.07;82.44
74790;BME280;63318;52.406;13.416;2022-11-20T07:03:22;100680.89;;;-0.11;82.43
74790;BME280;63318;52.406;13.416;2022-11-20T07:05:50;100682.73;;;-0.16;82.43
74790;BME280;63318;52.406;13.416;2022-11-20T07:08:18;100683.23;;;-0.17;82.56
74790;BME280;63318;52.406;13.416;2022-11-20T07:10:46;100683.35;;;-0.17;81.97
74790;BME280;63318;52.406;13.416;2022-11-20T07:13:15;100681.94;;;-0.23;82.16
74790;BME280;63318;52.406;13.416;2022-11-20T07:15:43;100682.98;;;-0.27;81.93
74790;BME280;63318;52.406;13.416;2022-11-20T07:18:12;100682.27;;;-0.29;82.37
74790;BME280;63318;52.406;13.416;2022-11-20T07:20:40;100682.97;;;-0.35;81.85
74790;BME280;63318;52.406;13.416;2022-11-20T07:23:08;100683.95;;;-0.40;82.44
74790;BME280;63318;52.406;13.416;2022-11-20T07:25:36;100676.39;;;-0.45;82.02
74790;BME280;63318;52.406;13.416;2022-11-20T07:28:05;100670.41;;;-0.47;82.07
74790;BME280;63318;52.406;13.416;2022-11-20T07:30:33;100667.68;;;-0.39;81.90
74790;BME280;63318;52.406;13.416;2022-11-20T07:33:01;100661.68;;;-0.36;81.77
74790;BME280;63318;52.406;13.416;2022-11-20T07:35:29;100666.59;;;-0.35;81.95
74790;BME280;63318;52.406;13.416;2022-11-20T07:37:58;100668.32;;;-0.34;82.00
74790;BME280;63318;52.406;13.416;2022-11-20T07:40:26;100669.76;;;-0.31;82.15
74790;BME280;63318;52.406;13.416;2022-11-20T07:42:57;100668.54;;;-0.32;82.31
74790;BME280;63318;52.406;13.416;2022-11-20T07:45:25;100670.39;;;-0.32;82.75
74790;BME280;63318;52.406;13.416;2022-11-20T07:47:54;100673.70;;;-0.35;82.75
74790;BME280;63318;52.406;13.416;2022-11-20T07:50:22;100666.98;;;-0.42;82.72
74790;BME280;63318;52.406;13.416;2022-11-20T07:52:50;100669.63;;;-0.45;82.73
74790;BME280;63318;52.406;13.416;2022-11-20T07:55:18;100665.30;;;-0.46;82.68
74790;BME280;63318;52.406;13.416;2022-11-20T07:57:47;100661.80;;;-0.49;82.69
74790;BME280;63318;52.406;13.416;2022-11-20T08:00:22;100659.03;;;-0.52;82.51
74790;BME280;63318;52.406;13.416;2022-11-20T08:02:50;100658.86;;;-0.55;82.81
74790;BME280;63318;52.406;13.416;2022-11-20T08:05:19;100656.71;;;-0.54;82.77
74790;BME280;63318;52.406;13.416;2022-11-20T08:07:47;100658.48;;;-0.52;82.73
74790;BME280;63318;52.406;13.416;2022-11-20T08:10:17;100654.91;;;-0.50;82.78
74790;BME280;63318;52.406;13.416;2022-11-20T08:12:49;100658.53;;;-0.49;82.77
74790;BME280;63318;52.406;13.416;2022-11-20T08:15:18;100657.20;;;-0.48;83.01
74790;BME280;63318;52.406;13.416;2022-11-20T08:17:46;100655.18;;;-0.44;82.34
74790;BME280;63318;52.406;13.416;2022-11-20T08:20:15;100649.57;;;-0.30;82.20
74790;BME280;63318;52.406;13.416;2022-11-20T08:22:43;100644.08;;;-0.23;81.75
74790;BME280;63318;52.406;13.416;2022-11-20T08:25:11;100645.85;;;-0.17;81.90
74790;BME280;63318;52.406;13.416;2022-11-20T08:27:40;100648.67;;;-0.11;82.18
74790;BME280;63318;52.406;13.416;2022-11-20T08:30:10;100648.44;;;-0.06;82.13
74790;BME280;63318;52.406;13.416;2022-11-20T08:32:39;100649.12;;;-0.03;82.25
74790;BME280;63318;52.406;13.416;2022-11-20T08:35:08;100648.86;;;-0.01;82.22
74790;BME280;63318;52.406;13.416;2022-11-20T08:37:36;100647.14;;;-0.05;82.30
74790;BME280;63318;52.406;13.416;2022-11-20T08:40:06;100645.55;;;-0.07;82.21
74790;BME280;63318;52.406;13.416;2022-11-20T08:42:35;100648.98;;;-0.06;82.18
74790;BME280;63318;52.406;13.416;2022-11-20T08:45:04;100649.02;;;-0.05;82.15
74790;BME280;63318;52.406;13.416;2022-11-20T08:47:32;100651.00;;;-0.08;81.94
74790;BME280;63318;52.406;13.416;2022-11-20T08:50:00;100651.20;;;-0.10;81.85
74790;BME280;63318;52.406;13.416;2022-11-20T08:52:29;100643.85;;;-0.15;81.56
74790;BME280;63318;52.406;13.416;2022-11-20T08:54:57;100640.36;;;-0.17;81.46
74790;BME280;63318;52.406;13.416;2022-11-20T08:57:25;100637.80;;;-0.18;81.80
74790;BME280;63318;52.406;13.416;2022-11-20T08:59:54;100639.89;;;-0.20;81.38
74790;BME280;63318;52.406;13.416;2022-11-20T09:02:22;100641.23;;;-0.23;81.88
74790;BME280;63318;52.406;13.416;2022-11-20T09:04:50;100640.05;;;-0.24;81.47
74790;BME280;63318;52.406;13.416;2022-11-20T09:07:19;100641.73;;;-0.13;80.96
74790;BME280;63318;52.406;13.416;2022-11-20T09:09:47;100643.65;;;-0.08;81.10
74790;BME280;63318;52.406;13.416;2022-11-20T09:12:16;100648.48;;;-0.01;81.26
74790;BME280;63318;52.406;13.416;2022-11-20T09:14:44;100656.30;;;0.02;81.26
74790;BME280;63318;52.406;13.416;2022-11-20T09:17:13;100657.86;;;0.06;81.23
74790;BME280;63318;52.406;13.416;2022-11-20T09:19:41;100656.06;;;0.04;81.69
74790;BME280;63318;52.406;13.416;2022-11-20T09:22:10;100659.50;;;-0.00;81.55
74790;BME280;63318;52.406;13.416;2022-11-20T09:24:38;100658.30;;;0.04;81.67
74790;BME280;63318;52.406;13.416;2022-11-20T09:27:06;100652.52;;;0.07;81.90
74790;BME280;63318;52.406;13.416;2022-11-20T09:29:35;100651.40;;;0.11;81.60
74790;BME280;63318;52.406;13.416;2022-11-20T09:32:03;100656.19;;;0.12;81.32
74790;BME280;63318;52.406;13.416;2022-11-20T09:34:31;100658.92;;;0.12;81.26
74790;BME280;63318;52.406;13.416;2022-11-20T09:36:59;100650.93;;;0.10;81.09
74790;BME280;63318;52.406;13.416;2022-11-20T09:39:28;100650.67;;;0.07;80.80
74790;BME280;63318;52.406;13.416;2022-11-20T09:42:07;100643.08;;;0.05;80.59
74790;BME280;63318;52.406;13.416;2022-11-20T09:44:49;100643.33;;;0.01;80.70
74790;BME280;63318;52.406;13.416;2022-11-20T09:47:26;100642.23;;;-0.04;80.52
74790;BME280;63318;52.406;13.416;2022-11-20T09:50:14;100639.19;;;-0.09;81.12
74790;BME280;63318;52.406;13.416;2022-11-20T09:52:58;100640.96;;;-0.10;80.72
74790;BME280;63318;52.406;13.416;2022-11-20T09:55:31;100636.85;;;0.03;80.30
74790;BME280;63318;52.406;13.416;2022-11-20T09:58:02;100637.45;;;0.06;80.30
74790;BME280;63318;52.406;13.416;2022-11-20T10:00:33;100637.61;;;0.06;80.54
74790;BME280;63318;52.406;13.416;2022-11-20T10:03:03;100633.45;;;0.10;81.03
74790;BME280;63318;52.406;13.416;2022-11-20T10:05:42;100632.20;;;0.09;80.84
74790;BME280;63318;52.406;13.416;2022-11-20T10:08:16;100630.86;;;0.11;80.76
74790;BME280;63318;52.406;13.416;2022-11-20T10:10:49;100625.70;;;0.12;81.26
74790;BME280;63318;52.406;13.416;2022-11-20T10:13:31;100621.71;;;0.12;81.05
74790;BME280;63318;52.406;13.416;2022-11-20T10:16:15;100622.88;;;0.14;81.07
74790;BME280;63318;52.406;13.416;2022-11-20T10:18:58;100612.66;;;0.15;80.86
74790;BME280;63318;52.406;13.416;2022-11-20T10:21:38;100615.82;;;0.17;80.68
74790;BME280;63318;52.406;13.416;2022-11-20T10:24:27;100617.84;;;0.16;80.67
74790;BME280;63318;52.406;13.416;2022-11-20T10:27:08;100621.61;;;0.16;80.46
74790;BME280;63318;52.406;13.416;2022-11-20T10:29:43;100619.77;;;0.18;80.55
74790;BME280;63318;52.406;13.416;2022-11-20T10:32:16;100618.70;;;0.19;80.84
74790;BME280;63318;52.406;13.416;2022-11-20T10:34:50;100618.55;;;0.15;80.54
74790;BME280;63318;52.406;13.416;2022-11-20T10:37:24;100620.48;;;0.19;80.67
74790;BME280;63318;52.406;13.416;2022-11-20T10:39:58;100620.05;;;0.26;80.23
74790;BME280;63318;52.406;13.416;2022-11-20T10:42:34;100613.30;;;0.29;80.06
74790;BME280;63318;52.406;13.416;2022-11-20T10:45:35;100610.55;;;0.34;80.54
74790;BME280;63318;52.406;13.416;2022-11-20T10:48:14;100608.30;;;0.41;80.57
74790;BME280;63318;52.406;13.416;2022-11-20T10:50:57;100601.08;;;0.48;81.06
74790;BME280;63318;52.406;13.416;2022-11-20T10:53:40;100597.52;;;0.50;81.16
74790;BME280;63318;52.406;13.416;2022-11-20T10:56:17;100595.41;;;0.50;81.04
74790;BME280;63318;52.406;13.416;2022-11-20T10:58:54;100598.52;;;0.50;81.10
74790;BME280;63318;52.406;13.416;2022-11-20T11:01:25;100597.13;;;0.49;81.04
74790;BME280;63318;52.406;13.416;2022-11-20T11:03:54;100595.24;;;0.51;81.12
74790;BME280;63318;52.406;13.416;2022-11-20T11:06:28;100593.98;;;0.51;80.82
74790;BME280;63318;52.406;13.416;2022-11-20T11:09:00;100591.51;;;0.48;80.89
74790;BME280;63318;52.406;13.416;2022-11-20T11:11:32;100591.71;;;0.49;80.76
74790;BME280;63318;52.406;13.416;2022-11-20T11:14:08;100594.10;;;0.49;80.54
74790;BME280;63318;52.406;13.416;2022-11-20T11:16:40;100591.26;;;0.48;80.80
74790;BME280;63318;52.406;13.416;2022-11-20T11:19:16;100586.17;;;0.45;80.47
74790;BME280;63318;52.406;13.416;2022-11-20T11:21:50;100582.68;;;0.44;80.46
74790;BME280;63318;52.406;13.416;2022-11-20T11:24:23;100582.39;;;0.45;80.55
74790;BME280;63318;52.406;13.416;2022-11-20T11:26:57;100577.23;;;0.58;80.31
74790;BME280;63318;52.406;13.416;2022-11-20T11:29:26;100575.33;;;0.68;80.39
74790;BME280;63318;52.406;13.416;2022-11-20T11:32:06;100574.72;;;0.75;80.16
74790;BME280;63318;52.406;13.416;2022-11-20T11:34:35;100573.71;;;0.88;80.45
74790;BME280;63318;52.406;13.416;2022-11-20T11:37:04;100570.16;;;1.01;80.79
74790;BME280;63318;52.406;13.416;2022-11-20T11:39:41;100570.18;;;1.16;80.81
74790;BME280;63318;52.406;13.416;2022-11-20T11:42:16;100565.69;;;1.23;80.89
74790;BME280;63318;52.406;13.416;2022-11-20T11:44:48;100564.20;;;1.31;80.52
74790;BME280;63318;52.406;13.416;2022-11-20T11:47:23;100565.98;;;1.37;80.40
74790;BME280;63318;52.406;13.416;2022-11-20T11:50:16;100564.48;;;1.42;80.23
74790;BME280;63318;52.406;13.416;2022-11-20T11:52:48;100562.84;;;1.50;80.14
74790;BME280;63318;52.406;13.416;2022-11-20T11:55:27;100558.11;;;1.54;79.82
74790;BME280;63318;52.406;13.416;2022-11-20T11:58:04;100559.41;;;1.54;79.80
74790;BME280;63318;52.406;13.416;2022-11-20T12:00:39;100555.95;;;1.55;79.76
74790;BME280;63318;52.406;13.416;2022-11-20T12:03:14;100555.83;;;1.54;79.41
74790;BME280;63318;52.406;13.416;2022-11-20T12:05:47;100555.83;;;1.53;79.14
74790;BME280;63318;52.406;13.416;2022-11-20T12:08:21;100549.39;;;1.52;79.24
74790;BME280;63318;52.406;13.416;2022-11-20T12:10:55;100549.39;;;1.54;79.25
74790;BME280;63318;52.406;13.416;2022-11-20T12:13:33;100547.33;;;1.55;79.20
74790;BME280;63318;52.406;13.416;2022-11-20T12:16:04;100545.24;;;1.58;79.14
74790;BME280;63318;52.406;13.416;2022-11-20T12:18:32;100544.23;;;1.63;79.00
74790;BME280;63318;52.406;13.416;2022-11-20T12:21:12;100548.14;;;1.67;79.14
74790;BME280;63318;52.406;13.416;2022-11-20T12:23:56;100544.70;;;1.74;79.33
74790;BME280;63318;52.406;13.416;2022-11-20T12:26:44;100542.34;;;1.79;79.16
74790;BME280;63318;52.406;13.416;2022-11-20T12:29:22;100536.61;;;1.80;78.90
74790;BME280;63318;52.406;13.416;2022-11-20T12:32:33;100534.26;;;1.85;78.66
74790;BME280;63318;52.406;13.416;2022-11-20T12:35:05;100533.13;;;1.93;78.31
74790;BME280;63318;52.406;13.416;2022-11-20T12:37:48;100529.06;;;1.91;78.70
74790;BME280;63318;52.406;13.416;2022-11-20T12:40:30;100529.17;;;1.93;78.67
74790;BME280;63318;52.406;13.416;2022-11-20T12:43:10;100529.41;;;1.93;78.63
74790;BME280;63318;52.406;13.416;2022-11-20T12:45:56;100531.14;;;1.93;78.68
74790;BME280;63318;52.406;13.416;2022-11-20T12:48:40;100528.87;;;1.90;78.82
74790;BME280;63318;52.406;13.416;2022-11-20T12:51:31;100528.10;;;1.79;78.83
74790;BME280;63318;52.406;13.416;2022-11-20T12:54:15;100524.66;;;1.73;79.20
74790;BME280;63318;52.406;13.416;2022-11-20T12:56:56;100528.41;;;1.68;79.30
74790;BME280;63318;52.406;13.416;2022-11-20T12:59:37;100529.27;;;1.60;79.04
74790;BME280;63318;52.406;13.416;2022-11-20T13:02:25;100525.56;;;1.52;79.30
74790;BME280;63318;52.406;13.416;2022-11-20T13:05:08;100523.98;;;1.45;79.17